Time;durP1;ratioP1;P1;durP2;ratioP2;P2;SDS_P1;SDS_P2;PMS_P1;PMS_P2;Temp;Humidity;BMP_temperature;BMP_pressure;BME280_temperature;BME280_humidity;BME280_pressure;Samples;Min_cycle;Max_cycle;Signal;HPM_P1;HPM_P2
2023/11/21 00:02:22;;;;;;;80.00;29.85;;;8.80;99.90;;;;;;7370419;19;20026;-62
2023/11/21 00:04:48;;;;;;;66.70;26.70;;;8.80;99.90;;;;;;7375747;19;20022;-63
2023/11/21 00:07:15;;;;;;;59.13;25.08;;;8.80;99.90;;;;;;7372645;19;20037;-63
2023/11/21 00:09:44;;;;;;;72.35;27.70;;;8.80;99.90;;;;;;7373143;19;20022;-63
2023/11/21 00:12:11;;;;;;;66.38;26.02;;;8.90;99.90;;;;;;7374596;19;20038;-63
2023/11/21 00:14:41;;;;;;;71.32;28.40;;;8.90;99.90;;;;;;7374223;19;20078;-63
2023/11/21 00:17:07;;;;;;;61.85;27.13;;;8.90;99.90;;;;;;7370747;19;20350;-63
2023/11/21 00:19:37;;;;;;;63.15;26.75;;;8.90;99.90;;;;;;7371772;19;20035;-63
2023/11/21 00:22:04;;;;;;;67.70;28.10;;;8.90;99.90;;;;;;7374085;19;20039;-63
2023/11/21 00:24:31;;;;;;;63.88;27.10;;;9.00;99.90;;;;;;7372536;19;20022;-63
2023/11/21 00:26:58;;;;;;;57.88;26.13;;;9.00;99.90;;;;;;7375221;19;20018;-63
2023/11/21 00:29:25;;;;;;;63.70;25.77;;;9.00;99.90;;;;;;7374378;19;20836;-63
2023/11/21 00:31:56;;;;;;;66.57;28.50;;;9.00;99.90;;;;;;7376141;19;20039;-63
2023/11/21 00:34:22;;;;;;;59.75;25.02;;;9.00;99.90;;;;;;7369846;19;20618;-63
2023/11/21 00:36:48;;;;;;;67.90;26.65;;;9.00;99.90;;;;;;7372729;19;20025;-62
2023/11/21 00:39:15;;;;;;;50.67;24.67;;;9.00;99.90;;;;;;7365583;19;20890;-63
2023/11/21 00:41:42;;;;;;;52.97;23.42;;;9.00;99.90;;;;;;7372455;19;20025;-63
2023/11/21 00:44:08;;;;;;;65.25;25.85;;;9.00;99.90;;;;;;7373721;19;20651;-62
2023/11/21 00:46:34;;;;;;;52.45;26.08;;;9.00;99.90;;;;;;7372949;19;20041;-63
2023/11/21 00:49:01;;;;;;;64.90;27.05;;;9.00;99.90;;;;;;7371180;19;20467;-67
2023/11/21 00:51:27;;;;;;;64.13;25.88;;;9.00;99.90;;;;;;7372392;19;20620;-67
2023/11/21 00:53:53;;;;;;;54.05;25.83;;;9.00;99.90;;;;;;7370859;19;20022;-67
2023/11/21 00:56:20;;;;;;;53.15;24.77;;;9.00;99.90;;;;;;7368985;19;20030;-62
2023/11/21 00:58:49;;;;;;;58.22;25.83;;;9.00;99.90;;;;;;7373101;19;20125;-62
2023/11/21 01:01:16;;;;;;;58.75;25.75;;;9.00;99.90;;;;;;7373897;19;20363;-62
2023/11/21 01:03:43;;;;;;;55.30;24.25;;;9.00;99.90;;;;;;7374732;19;20030;-62
2023/11/21 01:06:09;;;;;;;56.38;24.92;;;9.00;99.90;;;;;;7369888;19;20924;-62
2023/11/21 01:08:35;;;;;;;58.17;25.58;;;9.00;99.90;;;;;;7372375;19;20022;-62
2023/11/21 01:11:02;;;;;;;61.88;25.10;;;9.00;99.90;;;;;;7370077;19;20046;-62
2023/11/21 01:13:29;;;;;;;51.97;23.45;;;9.10;99.90;;;;;;7377547;19;20062;-62
2023/11/21 01:15:56;;;;;;;57.13;23.70;;;9.00;99.90;;;;;;7378149;19;20022;-67
2023/11/21 01:18:25;;;;;;;56.10;23.55;;;9.10;99.90;;;;;;7373886;19;20076;-67
2023/11/21 01:20:53;;;;;;;55.35;23.80;;;9.00;99.90;;;;;;7380402;19;20023;-67
2023/11/21 01:23:19;;;;;;;58.88;25.30;;;9.00;99.90;;;;;;7374916;19;20018;-67
2023/11/21 01:25:46;;;;;;;48.83;23.30;;;9.00;99.90;;;;;;7379299;19;20018;-67
2023/11/21 01:28:13;;;;;;;61.55;24.33;;;9.10;99.90;;;;;;7378687;19;20386;-67
2023/11/21 01:30:39;;;;;;;60.78;24.27;;;9.10;99.90;;;;;;7379623;19;20034;-67
2023/11/21 01:33:05;;;;;;;51.92;23.08;;;9.10;99.90;;;;;;7374741;19;20375;-67
2023/11/21 01:35:32;;;;;;;57.28;23.38;;;9.10;99.90;;;;;;7378379;19;20019;-68
2023/11/21 01:37:58;;;;;;;54.85;23.25;;;9.10;99.90;;;;;;7373590;19;20058;-67
2023/11/21 01:40:24;;;;;;;58.28;23.48;;;9.10;99.90;;;;;;7379494;19;20015;-68
2023/11/21 01:42:52;;;;;;;51.63;23.95;;;9.10;99.90;;;;;;7376211;19;20596;-68
2023/11/21 01:45:19;;;;;;;51.05;22.88;;;9.10;99.90;;;;;;7378164;19;20090;-68
2023/11/21 01:47:46;;;;;;;58.05;23.70;;;9.10;99.90;;;;;;7376708;19;20057;-68
2023/11/21 01:50:16;;;;;;;51.33;23.50;;;9.10;99.90;;;;;;7377075;19;20074;-68
2023/11/21 01:52:45;;;;;;;46.78;22.17;;;9.20;99.90;;;;;;7375428;19;20022;-69
2023/11/21 01:55:14;;;;;;;49.08;23.05;;;9.10;99.90;;;;;;7378683;19;20018;-68
2023/11/21 01:57:42;;;;;;;51.33;21.02;;;9.20;99.90;;;;;;7374090;19;20014;-68
2023/11/21 02:00:15;;;;;;;47.63;21.58;;;9.10;99.90;;;;;;7375616;19;21096;-67
2023/11/21 02:02:44;;;;;;;56.50;22.85;;;9.20;99.90;;;;;;7370383;19;20043;-68
2023/11/21 02:05:13;;;;;;;54.20;23.05;;;9.20;99.90;;;;;;7371395;19;20014;-68
2023/11/21 02:07:40;;;;;;;54.88;24.25;;;9.20;99.90;;;;;;7367852;19;20736;-68
2023/11/21 02:10:08;;;;;;;53.28;22.65;;;9.20;99.90;;;;;;7376818;19;20378;-68
2023/11/21 02:12:35;;;;;;;51.45;22.60;;;9.10;99.90;;;;;;7376866;19;20018;-63
2023/11/21 02:15:09;;;;;;;53.30;21.73;;;9.20;99.90;;;;;;7375141;19;20870;-63
2023/11/21 02:17:36;;;;;;;53.47;23.42;;;9.10;99.90;;;;;;7363047;19;20018;-63
2023/11/21 02:20:06;;;;;;;55.80;25.25;;;9.10;99.90;;;;;;7375135;19;20054;-63
2023/11/21 02:22:38;;;;;;;55.25;24.08;;;9.10;99.90;;;;;;7370749;19;20511;-63
2023/11/21 02:25:04;;;;;;;62.60;24.90;;;9.10;99.90;;;;;;7377603;19;20015;-63
2023/11/21 02:27:31;;;;;;;66.63;27.85;;;9.10;99.90;;;;;;7373898;19;20031;-63
2023/11/21 02:29:58;;;;;;;63.22;27.98;;;9.10;99.90;;;;;;7378264;19;20085;-64
2023/11/21 02:32:25;;;;;;;59.00;25.80;;;9.10;99.90;;;;;;7373665;19;20023;-66
2023/11/21 02:34:55;;;;;;;63.35;26.00;;;9.10;99.90;;;;;;7376586;19;20135;-63
2023/11/21 02:37:22;;;;;;;62.55;26.50;;;9.10;99.90;;;;;;7372256;19;20011;-63
2023/11/21 02:39:48;;;;;;;62.55;26.95;;;9.10;99.90;;;;;;7373352;19;20551;-63
2023/11/21 02:42:14;;;;;;;79.45;29.70;;;9.10;99.90;;;;;;7374910;19;20019;-63
2023/11/21 02:44:41;;;;;;;76.45;29.23;;;9.10;99.90;;;;;;7374274;19;20018;-63
2023/11/21 02:47:08;;;;;;;84.47;29.85;;;9.10;99.90;;;;;;7373435;19;20014;-63
2023/11/21 02:49:35;;;;;;;83.03;29.98;;;9.10;99.90;;;;;;7375358;19;20022;-63
2023/11/21 02:52:02;;;;;;;73.18;29.92;;;9.10;99.90;;;;;;7372658;19;20019;-62
2023/11/21 02:54:29;;;;;;;69.35;28.83;;;9.10;99.90;;;;;;7374168;19;20486;-69
2023/11/21 02:56:55;;;;;;;87.90;30.20;;;9.10;99.90;;;;;;7374673;19;20022;-69
2023/11/21 02:59:21;;;;;;;97.40;31.50;;;9.10;99.90;;;;;;7371563;19;20018;-69
2023/11/21 03:01:49;;;;;;;107.88;33.95;;;9.10;99.90;;;;;;7372766;19;20380;-69
2023/11/21 03:04:17;;;;;;;112.75;34.47;;;9.10;99.90;;;;;;7374986;19;20018;-69
2023/11/21 03:06:45;;;;;;;81.63;30.70;;;9.10;99.90;;;;;;7371869;19;20499;-69
2023/11/21 03:09:12;;;;;;;80.78;30.20;;;9.10;99.90;;;;;;7372106;19;20026;-71
2023/11/21 03:11:38;;;;;;;91.32;32.28;;;9.10;99.90;;;;;;7371312;19;20026;-69
2023/11/21 03:14:05;;;;;;;99.30;34.47;;;9.20;99.90;;;;;;7374570;19;20038;-70
2023/11/21 03:16:35;;;;;;;93.18;31.48;;;9.10;99.90;;;;;;7369727;19;20027;-68
2023/11/21 03:19:01;;;;;;;119.03;35.47;;;9.20;99.90;;;;;;7372032;19;20022;-68
2023/11/21 03:21:29;;;;;;;118.57;36.08;;;9.20;99.90;;;;;;7370300;19;21103;-68
2023/11/21 03:23:55;;;;;;;119.57;37.55;;;9.20;99.90;;;;;;7370338;19;21871;-68
2023/11/21 03:26:21;;;;;;;119.25;37.00;;;9.20;99.90;;;;;;7371217;19;20339;-68
2023/11/21 03:28:48;;;;;;;132.23;38.20;;;9.20;99.90;;;;;;7373644;19;20014;-67
2023/11/21 03:31:17;;;;;;;141.90;39.88;;;9.20;99.90;;;;;;7371470;19;20734;-62
2023/11/21 03:33:43;;;;;;;114.75;36.45;;;9.20;99.90;;;;;;7374593;19;20017;-61
2023/11/21 03:36:10;;;;;;;112.57;37.00;;;9.20;99.90;;;;;;7372160;19;20066;-62
2023/11/21 03:38:36;;;;;;;100.50;34.33;;;9.20;99.90;;;;;;7374098;19;20094;-62
2023/11/21 03:41:02;;;;;;;106.25;36.10;;;9.20;99.90;;;;;;7371984;19;20534;-68
2023/11/21 03:43:29;;;;;;;131.52;38.20;;;9.20;99.90;;;;;;7375005;19;20018;-62
2023/11/21 03:45:55;;;;;;;132.02;37.83;;;9.20;99.90;;;;;;7373839;19;20022;-62
2023/11/21 03:48:21;;;;;;;87.78;31.83;;;9.20;99.90;;;;;;7370961;19;20022;-62
2023/11/21 03:50:47;;;;;;;116.97;36.72;;;9.20;99.90;;;;;;7375136;19;20094;-63
2023/11/21 03:53:14;;;;;;;122.63;37.90;;;9.20;99.90;;;;;;7373675;19;20078;-61
2023/11/21 03:55:40;;;;;;;126.80;37.50;;;9.20;99.90;;;;;;7375598;19;20015;-62
2023/11/21 03:58:06;;;;;;;116.22;37.67;;;9.20;99.90;;;;;;7375120;19;20020;-62
2023/11/21 04:00:32;;;;;;;132.98;39.80;;;9.20;99.90;;;;;;7372972;19;20022;-62
2023/11/21 04:02:59;;;;;;;97.35;36.25;;;9.20;99.90;;;;;;7375105;19;20613;-62
2023/11/21 04:05:25;;;;;;;111.88;38.40;;;9.20;99.90;;;;;;7373944;19;20021;-62
2023/11/21 04:07:52;;;;;;;122.28;38.63;;;9.20;99.90;;;;;;7374765;19;20123;-62
2023/11/21 04:10:18;;;;;;;140.25;39.83;;;9.20;99.90;;;;;;7372492;19;20037;-62
2023/11/21 04:12:45;;;;;;;126.30;39.97;;;9.20;99.90;;;;;;7371128;19;20029;-68
2023/11/21 04:15:15;;;;;;;130.63;41.97;;;9.20;99.90;;;;;;7371678;19;20671;-62
2023/11/21 04:17:41;;;;;;;135.00;43.15;;;9.20;99.90;;;;;;7370044;19;20026;-62
2023/11/21 04:20:09;;;;;;;117.50;41.03;;;9.20;99.90;;;;;;7366865;19;20022;-62
2023/11/21 04:22:46;;;;;;;108.47;40.42;;;9.20;99.90;;;;;;7367499;19;20070;-63
2023/11/21 04:25:14;;;;;;;114.18;40.72;;;9.10;99.90;;;;;;7370811;19;20082;-68
2023/11/21 04:27:45;;;;;;;136.07;43.25;;;9.10;99.90;;;;;;7371380;19;20026;-62
2023/11/21 04:30:14;;;;;;;118.78;42.10;;;9.10;99.90;;;;;;7371223;19;20763;-63
2023/11/21 04:32:42;;;;;;;111.28;39.38;;;9.20;99.90;;;;;;7370186;19;20018;-62
2023/11/21 04:35:09;;;;;;;132.68;42.50;;;9.10;99.90;;;;;;7369670;19;20600;-62
2023/11/21 04:37:35;;;;;;;123.65;42.38;;;9.10;99.90;;;;;;7366752;19;20111;-62
2023/11/21 04:40:06;;;;;;;134.38;42.78;;;9.10;99.90;;;;;;7371645;19;20686;-63
2023/11/21 04:42:36;;;;;;;156.57;45.30;;;9.10;99.90;;;;;;7368776;19;20027;-62
2023/11/21 04:45:08;;;;;;;85.75;36.40;;;9.10;99.90;;;;;;7369478;19;20348;-62
2023/11/21 04:47:35;;;;;;;150.18;45.42;;;9.10;99.90;;;;;;7373734;19;20026;-62
2023/11/21 04:50:03;;;;;;;93.95;39.35;;;9.10;99.90;;;;;;7375881;19;20516;-62
2023/11/21 04:52:29;;;;;;;123.93;42.85;;;9.10;99.90;;;;;;7375068;19;20074;-62
2023/11/21 04:54:58;;;;;;;118.07;41.65;;;9.10;99.90;;;;;;7374737;19;20048;-63
2023/11/21 04:57:24;;;;;;;131.85;44.70;;;9.00;99.90;;;;;;7377270;19;20062;-62
2023/11/21 04:59:51;;;;;;;128.38;43.47;;;9.00;99.90;;;;;;7371369;19;20026;-63
2023/11/21 05:02:19;;;;;;;132.38;46.00;;;9.00;99.90;;;;;;7377316;19;20029;-62
2023/11/21 05:04:45;;;;;;;171.95;47.38;;;9.00;99.90;;;;;;7378158;19;20082;-62
2023/11/21 05:07:12;;;;;;;108.80;40.15;;;9.00;99.90;;;;;;7374156;19;20014;-68
2023/11/21 05:09:45;;;;;;;115.22;40.63;;;9.00;99.90;;;;;;7374798;19;20019;-68
2023/11/21 05:12:13;;;;;;;126.75;42.65;;;9.00;99.90;;;;;;7378979;19;20028;-68
2023/11/21 05:14:40;;;;;;;114.30;41.83;;;9.00;99.90;;;;;;7369340;19;20023;-68
2023/11/21 05:17:07;;;;;;;107.20;41.40;;;9.00;99.90;;;;;;7375824;19;20014;-69
2023/11/21 05:19:35;;;;;;;124.47;43.63;;;9.00;99.90;;;;;;7371225;19;20010;-69
2023/11/21 05:22:02;;;;;;;111.65;41.58;;;9.00;99.90;;;;;;7377942;19;20045;-69
2023/11/21 05:24:28;;;;;;;94.97;39.60;;;9.00;99.90;;;;;;7368604;19;20614;-69
2023/11/21 05:26:55;;;;;;;126.90;43.60;;;9.10;99.90;;;;;;7378160;19;20017;-67
2023/11/21 05:29:22;;;;;;;128.85;44.97;;;9.00;99.90;;;;;;7372870;19;20459;-67
2023/11/21 05:31:49;;;;;;;125.18;42.85;;;9.00;99.90;;;;;;7376139;19;20018;-66
2023/11/21 05:34:16;;;;;;;116.20;42.53;;;9.10;99.90;;;;;;7375130;19;20381;-68
2023/11/21 05:36:45;;;;;;;137.02;44.38;;;9.20;99.90;;;;;;7376226;19;20108;-68
2023/11/21 05:39:17;;;;;;;106.47;41.13;;;9.20;99.90;;;;;;7375166;19;20010;-69
2023/11/21 05:41:43;;;;;;;104.60;40.63;;;9.10;99.90;;;;;;7376779;19;20025;-68
2023/11/21 05:44:09;;;;;;;120.70;44.00;;;9.10;99.90;;;;;;7375343;19;20070;-68
2023/11/21 05:46:39;;;;;;;123.43;43.42;;;9.10;99.90;;;;;;7377561;19;20029;-68
2023/11/21 05:49:05;;;;;;;152.48;48.08;;;9.10;99.90;;;;;;7375801;19;20064;-68
2023/11/21 05:51:34;;;;;;;115.10;43.00;;;9.10;99.90;;;;;;7381941;19;20014;-64
2023/11/21 05:54:03;;;;;;;90.10;41.30;;;9.10;99.90;;;;;;7380246;19;20783;-65
2023/11/21 05:56:29;;;;;;;139.88;45.80;;;9.10;99.90;;;;;;7378031;19;20022;-65
2023/11/21 05:58:59;;;;;;;149.90;45.72;;;9.10;99.90;;;;;;7376510;19;20018;-64
2023/11/21 06:01:28;;;;;;;152.27;45.75;;;9.10;99.90;;;;;;7381277;19;20015;-65
2023/11/21 06:03:57;;;;;;;166.57;47.78;;;9.10;99.90;;;;;;7379085;19;20022;-68
2023/11/21 06:06:24;;;;;;;172.48;48.65;;;9.20;99.90;;;;;;7377297;19;20022;-68
2023/11/21 06:08:50;;;;;;;146.07;46.67;;;9.10;99.90;;;;;;7375219;19;20014;-70
2023/11/21 06:11:17;;;;;;;114.65;43.13;;;9.10;99.90;;;;;;7374742;19;20541;-70
2023/11/21 06:13:44;;;;;;;124.20;44.55;;;9.20;99.90;;;;;;7377092;19;20014;-69
2023/11/21 06:16:10;;;;;;;129.07;43.30;;;9.20;99.90;;;;;;7373049;19;20019;-68
2023/11/21 06:18:37;;;;;;;152.13;46.75;;;9.20;99.90;;;;;;7376098;19;20054;-70
2023/11/21 06:21:03;;;;;;;148.82;46.67;;;9.10;99.90;;;;;;7375018;19;20022;-69
2023/11/21 06:23:30;;;;;;;116.57;43.20;;;9.10;99.90;;;;;;7371479;19;20025;-69
2023/11/21 06:25:57;;;;;;;109.50;40.55;;;9.10;99.90;;;;;;7376898;19;20022;-67
2023/11/21 06:28:23;;;;;;;110.43;42.42;;;9.10;99.90;;;;;;7375177;19;20048;-69
2023/11/21 06:30:50;;;;;;;117.43;42.53;;;9.10;99.90;;;;;;7375850;19;20054;-70
2023/11/21 06:33:16;;;;;;;115.47;40.47;;;9.10;99.90;;;;;;7376906;19;20048;-70
2023/11/21 06:35:44;;;;;;;100.47;39.28;;;9.10;99.90;;;;;;7376103;19;20014;-69
2023/11/21 06:38:10;;;;;;;109.40;41.80;;;9.10;99.90;;;;;;7377759;19;20090;-70
2023/11/21 06:40:38;;;;;;;85.70;37.13;;;9.10;99.90;;;;;;7380333;19;20014;-70
2023/11/21 06:43:06;;;;;;;87.03;38.75;;;9.10;99.90;;;;;;7379912;19;20007;-69
2023/11/21 06:45:34;;;;;;;77.13;35.78;;;9.20;99.90;;;;;;7377347;19;20452;-70
2023/11/21 06:48:00;;;;;;;82.03;35.45;;;9.10;99.90;;;;;;7376266;19;20011;-69
2023/11/21 06:50:26;;;;;;;72.35;35.10;;;9.10;99.90;;;;;;7374938;19;20429;-69
2023/11/21 06:52:53;;;;;;;103.72;37.00;;;9.20;99.90;;;;;;7378445;19;20102;-68
2023/11/21 06:55:19;;;;;;;97.53;37.10;;;9.10;99.90;;;;;;7375375;19;20036;-70
2023/11/21 06:57:46;;;;;;;94.35;36.50;;;9.10;99.90;;;;;;7374502;19;20023;-69
2023/11/21 07:00:15;;;;;;;91.05;35.95;;;9.20;99.90;;;;;;7377248;19;20155;-69
2023/11/21 07:02:42;;;;;;;82.22;33.20;;;9.20;99.90;;;;;;7376755;19;20010;-68
2023/11/21 07:05:08;;;;;;;77.65;33.28;;;9.20;99.90;;;;;;7376013;19;20057;-68
2023/11/21 07:07:35;;;;;;;82.30;34.50;;;9.20;99.90;;;;;;7374282;19;20022;-69
2023/11/21 07:10:02;;;;;;;84.55;34.50;;;9.20;99.90;;;;;;7378215;19;20018;-69
2023/11/21 07:12:35;;;;;;;63.35;29.58;;;9.20;99.90;;;;;;7373735;19;20019;-68
2023/11/21 07:15:02;;;;;;;65.88;28.80;;;9.20;99.90;;;;;;7373029;19;20252;-68
2023/11/21 07:17:28;;;;;;;66.22;28.80;;;9.20;99.90;;;;;;7373877;19;20027;-68
2023/11/21 07:19:55;;;;;;;63.67;27.10;;;9.30;99.90;;;;;;7373245;19;20026;-68
2023/11/21 07:22:21;;;;;;;57.78;26.95;;;9.30;99.90;;;;;;7373784;19;20011;-66
2023/11/21 07:24:50;;;;;;;50.88;23.58;;;9.30;99.90;;;;;;7371277;19;20011;-67
2023/11/21 07:27:17;;;;;;;68.20;32.42;;;9.30;99.90;;;;;;7376338;19;20011;-68
2023/11/21 07:29:43;;;;;;;63.50;26.95;;;9.30;99.90;;;;;;7375933;19;20014;-68
2023/11/21 07:32:09;;;;;;;62.90;27.27;;;9.30;99.90;;;;;;7377727;19;20011;-68
2023/11/21 07:34:36;;;;;;;69.53;30.85;;;9.30;99.90;;;;;;7373721;19;20085;-68
2023/11/21 07:37:03;;;;;;;59.63;25.45;;;9.30;99.90;;;;;;7374199;19;20031;-68
2023/11/21 07:39:30;;;;;;;55.63;28.58;;;9.30;99.90;;;;;;7373342;19;20078;-68
2023/11/21 07:41:57;;;;;;;54.45;27.83;;;9.20;99.90;;;;;;7375060;19;20032;-69
2023/11/21 07:44:24;;;;;;;51.20;23.08;;;9.30;99.90;;;;;;7375002;19;20019;-65
2023/11/21 07:46:50;;;;;;;52.20;23.50;;;9.20;99.90;;;;;;7379419;19;20465;-65
2023/11/21 07:49:20;;;;;;;49.58;23.25;;;9.20;99.90;;;;;;7374557;19;20610;-64
2023/11/21 07:51:46;;;;;;;52.95;23.75;;;9.30;99.90;;;;;;7374385;19;20495;-64
2023/11/21 07:54:12;;;;;;;56.97;23.73;;;9.30;99.90;;;;;;7371280;19;20577;-68
2023/11/21 07:56:39;;;;;;;51.97;23.50;;;9.30;99.90;;;;;;7375403;19;20022;-69
2023/11/21 07:59:05;;;;;;;52.55;23.23;;;9.40;99.90;;;;;;7374246;19;20022;-64
2023/11/21 08:01:31;;;;;;;51.47;23.65;;;9.40;99.90;;;;;;7374170;19;20014;-68
2023/11/21 08:04:01;;;;;;;54.78;23.38;;;9.40;99.90;;;;;;7374911;19;20495;-64
2023/11/21 08:06:28;;;;;;;57.80;23.52;;;9.40;99.90;;;;;;7374304;19;20014;-68
2023/11/21 08:08:54;;;;;;;51.40;22.35;;;9.40;99.90;;;;;;7371298;19;20039;-68
2023/11/21 08:11:21;;;;;;;46.10;22.80;;;9.40;99.90;;;;;;7374187;19;20018;-67
2023/11/21 08:13:47;;;;;;;53.22;22.55;;;9.50;99.90;;;;;;7369522;19;20342;-68
2023/11/21 08:16:14;;;;;;;56.22;22.88;;;9.50;99.90;;;;;;7371790;19;20014;-69
2023/11/21 08:18:41;;;;;;;57.28;23.90;;;9.50;99.90;;;;;;7374360;19;20766;-69
2023/11/21 08:21:08;;;;;;;52.35;23.00;;;9.60;99.90;;;;;;7371617;19;20478;-69
2023/11/21 08:23:35;;;;;;;46.83;21.98;;;9.60;99.90;;;;;;7372604;19;20826;-64
2023/11/21 08:26:03;;;;;;;53.88;24.25;;;9.60;99.90;;;;;;7374768;19;20018;-69
2023/11/21 08:28:30;;;;;;;48.83;22.45;;;9.60;99.90;;;;;;7372127;19;20476;-68
2023/11/21 08:30:56;;;;;;;52.72;22.42;;;9.60;99.90;;;;;;7371731;19;20018;-68
2023/11/21 08:33:22;;;;;;;51.75;22.30;;;9.70;99.90;;;;;;7376192;19;20023;-69
2023/11/21 08:35:49;;;;;;;42.90;20.00;;;9.70;99.90;;;;;;7371347;19;20022;-70
2023/11/21 08:38:16;;;;;;;35.45;18.48;;;9.70;99.90;;;;;;7374832;19;20078;-69
2023/11/21 08:40:42;;;;;;;43.17;19.80;;;9.70;99.90;;;;;;7373846;19;20122;-70
2023/11/21 08:43:08;;;;;;;34.33;16.80;;;9.70;99.90;;;;;;7374999;19;20792;-64
2023/11/21 08:45:34;;;;;;;35.40;17.38;;;9.70;99.90;;;;;;7375406;19;20023;-64
2023/11/21 08:48:01;;;;;;;39.72;17.88;;;9.70;99.90;;;;;;7374762;19;20023;-65
2023/11/21 08:50:28;;;;;;;39.50;18.05;;;9.70;99.90;;;;;;7375789;19;20021;-64
2023/11/21 08:52:54;;;;;;;56.78;20.38;;;9.70;99.90;;;;;;7376588;19;20018;-64
2023/11/21 08:55:20;;;;;;;56.25;20.70;;;9.60;99.90;;;;;;7376772;19;20066;-65
2023/11/21 08:57:47;;;;;;;59.72;22.27;;;9.60;99.90;;;;;;7367920;19;20471;-64
2023/11/21 09:00:15;;;;;;;62.75;25.48;;;9.60;99.90;;;;;;7377277;19;20031;-64
2023/11/21 09:02:42;;;;;;;84.55;32.05;;;9.50;99.90;;;;;;7372962;19;20022;-64
2023/11/21 09:05:10;;;;;;;87.35;29.83;;;9.50;99.90;;;;;;7375961;19;20018;-64
2023/11/21 09:07:43;;;;;;;60.85;25.95;;;9.40;99.90;;;;;;7373549;19;20019;-63
2023/11/21 09:10:10;;;;;;;67.10;27.77;;;9.40;99.90;;;;;;7377818;19;20052;-67
2023/11/21 09:12:40;;;;;;;67.90;33.67;;;9.30;99.90;;;;;;7373562;19;20015;-64
2023/11/21 09:15:09;;;;;;;62.20;26.17;;;9.30;99.90;;;;;;7377886;19;20036;-64
2023/11/21 09:17:36;;;;;;;56.90;27.50;;;9.30;99.90;;;;;;7366936;19;20131;-68
2023/11/21 09:20:05;;;;;;;58.58;28.33;;;9.20;99.90;;;;;;7368613;19;20015;-68
2023/11/21 09:22:32;;;;;;;54.35;27.63;;;9.20;99.90;;;;;;7371002;19;20011;-69
2023/11/21 09:24:59;;;;;;;61.00;27.98;;;9.20;99.90;;;;;;7369907;19;20074;-69
2023/11/21 09:27:27;;;;;;;57.88;33.47;;;9.20;99.90;;;;;;7373438;19;20861;-69
2023/11/21 09:29:55;;;;;;;47.80;24.80;;;9.20;99.90;;;;;;7372278;19;20011;-69
2023/11/21 09:32:21;;;;;;;60.85;30.20;;;9.20;99.90;;;;;;7378770;19;20086;-64
2023/11/21 09:34:58;;;;;;;49.67;27.70;;;9.20;99.90;;;;;;7385057;19;20030;-67
2023/11/21 09:37:24;;;;;;;55.47;30.95;;;9.10;99.90;;;;;;7381751;19;20015;-68
2023/11/21 09:39:51;;;;;;;51.85;28.70;;;9.20;99.90;;;;;;7376330;19;20542;-68
2023/11/21 09:42:25;;;;;;;55.30;29.55;;;9.20;99.90;;;;;;7383005;19;20026;-65
2023/11/21 09:45:34;;;;;;;58.85;33.80;;;9.20;99.90;;;;;;7382056;19;20046;-69
2023/11/21 09:48:01;;;;;;;63.80;33.95;;;9.20;99.90;;;;;;7380624;19;20050;-67
2023/11/21 09:50:28;;;;;;;63.05;33.83;;;9.20;99.90;;;;;;7380493;19;20111;-66
2023/11/21 09:53:16;;;;;;;57.17;32.17;;;9.10;99.90;;;;;;7372717;19;20581;-65
2023/11/21 09:55:44;;;;;;;50.95;30.00;;;9.20;99.90;;;;;;7377767;19;20026;-66
2023/11/21 09:58:14;;;;;;;48.55;29.67;;;9.20;99.90;;;;;;7374818;19;20024;-67
2023/11/21 10:00:46;;;;;;;47.65;29.27;;;9.20;99.90;;;;;;7377666;19;20447;-67
2023/11/21 10:03:15;;;;;;;43.65;28.98;;;9.10;99.90;;;;;;7377858;19;20018;-67
2023/11/21 10:05:45;;;;;;;37.47;26.25;;;9.10;99.90;;;;;;7377440;19;20035;-64
2023/11/21 10:08:12;;;;;;;43.75;27.65;;;9.10;99.90;;;;;;7377859;19;20050;-65
2023/11/21 10:10:47;;;;;;;39.10;26.25;;;9.10;99.90;;;;;;7376300;19;20086;-64
2023/11/21 10:13:17;;;;;;;35.60;24.85;;;9.10;99.90;;;;;;7376656;19;20854;-65
2023/11/21 10:15:49;;;;;;;39.53;25.70;;;9.10;99.90;;;;;;7376814;19;20017;-64
2023/11/21 10:18:16;;;;;;;38.03;24.08;;;9.10;99.90;;;;;;7377533;19;20014;-63
2023/11/21 10:20:43;;;;;;;41.50;25.90;;;9.10;99.90;;;;;;7376980;19;20025;-65
2023/11/21 10:23:11;;;;;;;41.05;26.83;;;9.10;99.90;;;;;;7376470;19;20015;-63
2023/11/21 10:25:38;;;;;;;42.53;27.88;;;9.10;99.90;;;;;;7376054;19;20493;-63
2023/11/21 10:28:07;;;;;;;41.15;27.83;;;9.10;99.90;;;;;;7377390;19;20068;-62
2023/11/21 10:30:37;;;;;;;42.80;26.70;;;9.10;99.90;;;;;;7372074;19;20025;-63
2023/11/21 10:33:05;;;;;;;45.13;27.73;;;9.10;99.90;;;;;;7377789;19;20014;-64
2023/11/21 10:35:50;;;;;;;39.72;26.77;;;9.20;99.90;;;;;;7377864;19;20014;-67
2023/11/21 10:38:17;;;;;;;48.17;29.35;;;9.20;99.90;;;;;;7376956;19;20023;-68
2023/11/21 10:40:46;;;;;;;45.13;28.27;;;9.20;99.90;;;;;;7376263;19;20493;-67
2023/11/21 10:43:14;;;;;;;53.65;34.47;;;9.20;99.90;;;;;;7377359;19;20259;-67
2023/11/21 10:45:44;;;;;;;46.42;28.75;;;9.10;99.90;;;;;;7376477;19;20026;-68
2023/11/21 10:48:15;;;;;;;38.15;26.05;;;9.20;99.90;;;;;;7378813;19;20017;-68
2023/11/21 10:50:42;;;;;;;38.40;25.43;;;9.20;99.90;;;;;;7378761;19;20027;-67
2023/11/21 10:53:08;;;;;;;37.17;25.67;;;9.20;99.90;;;;;;7377251;19;20011;-67
2023/11/21 10:55:34;;;;;;;38.25;24.88;;;9.20;99.90;;;;;;7377344;19;20506;-69
2023/11/21 10:58:04;;;;;;;32.75;24.70;;;9.20;99.90;;;;;;7374811;19;20026;-67
2023/11/21 11:00:32;;;;;;;45.17;32.47;;;9.20;99.90;;;;;;7374311;19;20039;-65
2023/11/21 11:02:59;;;;;;;31.23;23.65;;;9.20;99.90;;;;;;7376681;19;20018;-65
2023/11/21 11:05:29;;;;;;;29.25;21.23;;;9.10;99.90;;;;;;7376452;19;20109;-64
2023/11/21 11:08:01;;;;;;;28.73;21.63;;;9.10;99.90;;;;;;7373728;19;20014;-64
2023/11/21 11:10:30;;;;;;;31.67;22.15;;;9.00;99.90;;;;;;7375159;19;20018;-64
2023/11/21 11:12:58;;;;;;;25.65;18.17;;;8.90;99.90;;;;;;7375232;19;20029;-64
2023/11/21 11:15:26;;;;;;;19.00;15.80;;;8.90;99.90;;;;;;7373972;19;20029;-65
2023/11/21 11:17:56;;;;;;;19.52;16.63;;;8.90;99.90;;;;;;7370262;19;20060;-68
2023/11/21 11:20:30;;;;;;;19.05;15.38;;;8.90;99.90;;;;;;7376307;19;20596;-68
2023/11/21 11:23:17;;;;;;;15.77;12.85;;;9.00;99.90;;;;;;7373985;19;20014;-64
2023/11/21 11:25:56;;;;;;;16.90;13.38;;;9.00;99.90;;;;;;7375734;19;20018;-65
2023/11/21 11:28:36;;;;;;;18.40;15.50;;;9.20;99.90;;;;;;7371188;19;20025;-64
2023/11/21 11:31:05;;;;;;;19.38;13.55;;;9.90;99.90;;;;;;7371192;19;20019;-64
2023/11/21 11:33:56;;;;;;;14.23;10.88;;;10.70;99.90;;;;;;7377293;19;20458;-62
2023/11/21 11:36:26;;;;;;;23.87;17.03;;;10.70;99.90;;;;;;7372721;19;20044;-63
2023/11/21 11:38:53;;;;;;;11.98;9.70;;;10.60;99.90;;;;;;7375108;19;20602;-63
2023/11/21 11:41:32;;;;;;;19.90;15.27;;;10.70;99.90;;;;;;7372770;19;20018;-63
2023/11/21 11:44:00;;;;;;;13.40;11.10;;;10.50;99.90;;;;;;7373244;19;20018;-63
2023/11/21 11:46:46;;;;;;;14.57;12.38;;;10.50;99.90;;;;;;7375286;19;20042;-63
2023/11/21 11:49:25;;;;;;;13.55;11.82;;;10.50;99.90;;;;;;7376152;19;20022;-63
2023/11/21 11:52:32;;;;;;;13.32;11.52;;;10.40;99.90;;;;;;7374293;19;20018;-63
2023/11/21 11:55:00;;;;;;;18.50;13.40;;;10.40;99.90;;;;;;7370297;19;20022;-67
2023/11/21 11:57:33;;;;;;;13.32;10.68;;;10.40;99.90;;;;;;7376285;19;20368;-66
2023/11/21 12:00:11;;;;;;;13.20;11.57;;;10.40;99.90;;;;;;7376468;19;20011;-66
2023/11/21 12:02:41;;;;;;;18.08;15.13;;;10.40;99.90;;;;;;7379250;19;20022;-68
2023/11/21 12:05:15;;;;;;;13.00;11.60;;;10.30;99.90;;;;;;7377653;19;20022;-66
2023/11/21 12:07:46;;;;;;;15.50;12.57;;;10.30;99.90;;;;;;7380265;19;20018;-65
2023/11/21 12:10:17;;;;;;;17.45;14.70;;;10.20;99.90;;;;;;7380362;19;20014;-66
2023/11/21 12:12:46;;;;;;;14.77;12.70;;;10.10;99.90;;;;;;7375088;19;20038;-67
2023/11/21 12:15:13;;;;;;;13.77;11.60;;;10.00;99.90;;;;;;7381479;19;20014;-67
2023/11/21 12:17:42;;;;;;;14.63;11.93;;;9.90;99.90;;;;;;7381581;19;20078;-66
2023/11/21 12:20:14;;;;;;;13.43;11.35;;;9.80;99.90;;;;;;7382703;19;20852;-67
2023/11/21 12:22:48;;;;;;;13.70;10.85;;;9.70;99.90;;;;;;7384527;19;20018;-66
2023/11/21 12:25:19;;;;;;;13.45;11.68;;;9.70;99.90;;;;;;7380393;19;20047;-66
2023/11/21 12:27:52;;;;;;;12.13;10.47;;;9.60;99.90;;;;;;7380259;19;20019;-67
2023/11/21 12:30:21;;;;;;;13.23;11.30;;;9.60;99.90;;;;;;7383351;19;20035;-67
2023/11/21 12:32:52;;;;;;;12.35;10.60;;;9.60;99.90;;;;;;7381824;19;20126;-67
2023/11/21 12:35:19;;;;;;;12.45;10.68;;;9.70;99.90;;;;;;7383152;19;20014;-67
2023/11/21 12:37:46;;;;;;;12.25;10.77;;;9.70;99.90;;;;;;7381789;19;20006;-68
2023/11/21 12:40:15;;;;;;;11.90;10.57;;;9.80;99.90;;;;;;7381337;19;20402;-67